createdAt,value
2022-07-30T00:01:14.033Z,2.33
2022-07-30T00:03:40.510Z,1.43
2022-07-30T00:06:07.033Z,3.30
2022-07-30T00:08:33.932Z,2.20
2022-07-30T00:11:00.380Z,0.83
2022-07-30T00:13:26.877Z,1.93
2022-07-30T00:15:53.358Z,1.90
2022-07-30T00:18:19.779Z,1.53
2022-07-30T00:20:48.790Z,1.33
2022-07-30T00:23:15.551Z,2.60
2022-07-30T00:25:42.101Z,1.90
2022-07-30T00:28:08.517Z,2.03
2022-07-30T00:30:35.356Z,2.13
2022-07-30T00:33:02.180Z,1.10
2022-07-30T00:35:28.801Z,2.23
2022-07-30T00:37:55.268Z,1.70
2022-07-30T00:40:21.904Z,3.03
2022-07-30T00:42:48.429Z,1.50
2022-07-30T00:45:16.560Z,2.33
2022-07-30T00:47:43.599Z,1.37
2022-07-30T00:50:12.116Z,1.83
2022-07-30T00:52:39.782Z,1.53
2022-07-30T00:55:08.610Z,2.53
2022-07-30T00:57:35.193Z,2.10
2022-07-30T01:00:02.004Z,2.03
2022-07-30T01:02:28.542Z,1.50
2022-07-30T01:04:55.123Z,2.00
2022-07-30T01:07:21.738Z,2.23
2022-07-30T01:09:53.577Z,2.70
2022-07-30T01:12:24.774Z,2.90
2022-07-30T01:14:52.329Z,4.73
2022-07-30T01:17:19.043Z,1.80
2022-07-30T01:19:52.288Z,2.97
2022-07-30T01:22:31.208Z,1.70
2022-07-30T01:25:08.250Z,1.83
2022-07-30T01:27:41.377Z,1.63
2022-07-30T01:30:09.199Z,1.60
2022-07-30T01:32:40.364Z,2.63
2022-07-30T01:35:09.057Z,3.03
2022-07-30T01:37:36.932Z,3.20
2022-07-30T01:40:04.994Z,2.77
2022-07-30T01:42:33.571Z,2.23
2022-07-30T01:45:01.014Z,2.10
2022-07-30T01:47:28.382Z,1.23
2022-07-30T01:49:56.081Z,2.10
2022-07-30T01:52:23.513Z,1.73
2022-07-30T01:54:52.409Z,2.50
2022-07-30T01:57:21.024Z,1.60
2022-07-30T01:59:50.227Z,1.63
2022-07-30T02:02:18.001Z,2.70
2022-07-30T02:04:44.985Z,1.50
2022-07-30T02:07:34.766Z,2.20
2022-07-30T02:10:26.859Z,1.50
2022-07-30T02:12:57.216Z,1.97
2022-07-30T02:15:32.667Z,1.23
2022-07-30T02:18:17.479Z,2.03
2022-07-30T02:20:51.044Z,2.50
2022-07-30T02:23:19.593Z,1.80
2022-07-30T02:25:50.169Z,1.60
2022-07-30T02:28:19.607Z,1.77
2022-07-30T02:30:58.817Z,0.87
2022-07-30T02:33:33.453Z,2.07
2022-07-30T02:36:01.406Z,2.80
2022-07-30T02:38:29.036Z,2.40
2022-07-30T02:40:58.132Z,3.27
2022-07-30T02:43:26.542Z,2.83
2022-07-30T02:45:53.696Z,1.83
2022-07-30T02:48:34.212Z,2.90
2022-07-30T02:51:04.093Z,1.97
2022-07-30T02:53:31.299Z,2.73
2022-07-30T02:55:59.238Z,2.73
2022-07-30T02:58:27.176Z,3.90
2022-07-30T03:00:55.644Z,2.97
2022-07-30T03:03:28.857Z,2.13
2022-07-30T03:05:56.207Z,3.13
2022-07-30T03:08:25.054Z,2.23
2022-07-30T03:10:53.842Z,3.30
2022-07-30T03:13:21.504Z,2.83
2022-07-30T03:15:50.616Z,3.70
2022-07-30T03:18:20.161Z,3.50
2022-07-30T03:20:50.302Z,4.60
2022-07-30T03:23:19.105Z,3.87
2022-07-30T03:25:56.903Z,3.80
2022-07-30T03:28:24.960Z,3.40
2022-07-30T03:30:53.084Z,3.43
2022-07-30T03:33:20.325Z,2.40
2022-07-30T03:35:49.706Z,3.43
2022-07-30T03:38:17.571Z,3.93
2022-07-30T03:40:45.251Z,2.70
2022-07-30T03:43:18.541Z,3.40
2022-07-30T03:46:01.039Z,3.00
2022-07-30T03:48:28.077Z,3.40
2022-07-30T03:50:55.567Z,3.30
2022-07-30T03:53:24.947Z,2.83
2022-07-30T03:55:53.168Z,2.93
2022-07-30T03:58:19.801Z,2.40
2022-07-30T04:00:50.751Z,3.07
2022-07-30T04:03:27.944Z,2.60
2022-07-30T04:05:54.739Z,2.43
2022-07-30T04:08:21.226Z,2.50
2022-07-30T04:10:51.477Z,3.10
2022-07-30T04:13:18.478Z,2.20
2022-07-30T04:16:38.994Z,2.00
2022-07-30T04:19:00.036Z,3.07
2022-07-30T04:21:27.784Z,2.70
2022-07-30T04:24:02.940Z,2.80
2022-07-30T04:26:34.045Z,3.17
2022-07-30T04:29:02.560Z,3.23
2022-07-30T04:31:38.368Z,3.07
2022-07-30T04:34:08.352Z,3.03
2022-07-30T04:36:35.743Z,2.80
2022-07-30T04:39:02.447Z,3.57
2022-07-30T04:41:29.631Z,2.90
2022-07-30T04:44:16.132Z,3.40
2022-07-30T04:46:42.622Z,3.03
2022-07-30T04:49:10.498Z,3.63
2022-07-30T04:51:38.404Z,4.20
2022-07-30T04:54:08.964Z,3.80
2022-07-30T04:56:50.216Z,4.07
2022-07-30T04:59:23.580Z,3.60
2022-07-30T05:01:51.081Z,2.97
2022-07-30T05:04:18.888Z,3.70
2022-07-30T05:06:47.958Z,3.30
2022-07-30T05:09:15.946Z,3.03
2022-07-30T05:11:42.450Z,3.30
2022-07-30T05:14:08.876Z,3.90
2022-07-30T05:16:35.613Z,3.20
2022-07-30T05:19:02.038Z,3.00
2022-07-30T05:21:34.246Z,2.57
2022-07-30T05:24:00.775Z,2.10
2022-07-30T05:26:27.828Z,3.30
2022-07-30T05:28:56.715Z,3.30
2022-07-30T05:31:24.435Z,3.00
2022-07-30T05:33:51.560Z,3.13
2022-07-30T05:36:18.777Z,2.83
2022-07-30T05:38:45.176Z,3.35
2022-07-30T05:41:19.009Z,2.60
2022-07-30T05:43:58.050Z,3.70
2022-07-30T05:46:24.585Z,2.80
2022-07-30T05:48:51.112Z,3.20
2022-07-30T05:51:19.352Z,2.80
2022-07-30T05:53:45.812Z,2.40
2022-07-30T05:56:12.342Z,2.30
2022-07-30T05:58:38.805Z,1.70
2022-07-30T06:01:05.232Z,1.80
2022-07-30T06:03:31.845Z,2.13
2022-07-30T06:05:58.353Z,3.23
2022-07-30T06:08:24.748Z,2.13
2022-07-30T06:10:51.176Z,2.87
2022-07-30T06:13:17.596Z,2.43
2022-07-30T06:15:44.063Z,1.83
2022-07-30T06:18:10.499Z,2.50
2022-07-30T06:20:36.973Z,2.97
2022-07-30T06:23:03.383Z,2.73
2022-07-30T06:25:30.045Z,2.60
2022-07-30T06:27:56.460Z,3.00
2022-07-30T06:30:30.366Z,2.70
2022-07-30T06:32:58.016Z,1.60
2022-07-30T06:35:24.464Z,2.40
2022-07-30T06:37:58.664Z,2.90
2022-07-30T06:40:33.601Z,3.60
2022-07-30T06:43:00.022Z,3.00
2022-07-30T06:45:26.437Z,1.83
2022-07-30T06:47:57.527Z,3.13
2022-07-30T06:50:24.273Z,3.03
2022-07-30T06:52:50.696Z,2.03
2022-07-30T06:55:17.176Z,2.90
2022-07-30T06:57:43.703Z,2.30
2022-07-30T07:00:10.736Z,2.50
2022-07-30T07:02:37.253Z,3.07
2022-07-30T07:05:03.914Z,3.00
2022-07-30T07:07:41.439Z,3.17
2022-07-30T07:10:10.600Z,2.10
2022-07-30T07:12:36.975Z,3.20
2022-07-30T07:15:03.736Z,2.47
2022-07-30T07:17:30.141Z,1.87
2022-07-30T07:19:59.956Z,2.80
2022-07-30T07:22:28.422Z,2.80
2022-07-30T07:24:54.864Z,2.23
2022-07-30T07:27:21.546Z,2.67
2022-07-30T07:30:01.875Z,2.37
2022-07-30T07:32:31.638Z,2.10
2022-07-30T07:34:58.034Z,2.50
2022-07-30T07:37:24.437Z,3.20
2022-07-30T07:39:50.885Z,3.47
2022-07-30T07:42:17.299Z,2.57
2022-07-30T07:44:43.734Z,1.83
2022-07-30T07:47:10.230Z,2.10
2022-07-30T07:49:36.630Z,1.80
2022-07-30T07:52:03.222Z,2.93
2022-07-30T07:54:29.643Z,2.47
2022-07-30T07:56:57.275Z,1.83
2022-07-30T07:59:25.471Z,1.90
2022-07-30T08:02:03.345Z,2.77
2022-07-30T08:04:30.577Z,2.97
2022-07-30T08:06:57.071Z,3.23
2022-07-30T08:09:23.492Z,2.13
2022-07-30T08:11:49.968Z,2.00
2022-07-30T08:14:16.397Z,1.70
2022-07-30T08:16:42.916Z,2.50
2022-07-30T08:19:09.769Z,3.20
2022-07-30T08:21:36.166Z,2.43
2022-07-30T08:24:02.651Z,1.87
2022-07-30T08:26:29.054Z,2.57
2022-07-30T08:28:55.536Z,2.47
2022-07-30T08:31:21.944Z,1.90
2022-07-30T08:33:48.723Z,1.00
2022-07-30T08:36:15.254Z,2.30
2022-07-30T08:38:41.710Z,1.83
2022-07-30T08:41:08.511Z,2.47
2022-07-30T08:43:36.444Z,3.13
2022-07-30T08:46:07.565Z,1.70
2022-07-30T08:48:35.796Z,2.90
2022-07-30T08:51:02.406Z,2.50
2022-07-30T08:53:29.607Z,1.60
2022-07-30T08:55:58.670Z,2.50
2022-07-30T08:58:31.224Z,2.00
2022-07-30T09:00:58.176Z,1.83
2022-07-30T09:03:24.762Z,2.00
2022-07-30T09:05:51.237Z,2.73
2022-07-30T09:08:18.708Z,2.13
2022-07-30T09:10:52.870Z,2.80
2022-07-30T09:13:24.988Z,1.57
2022-07-30T09:15:52.152Z,2.13
2022-07-30T09:18:33.929Z,1.87
2022-07-30T09:21:13.315Z,1.73
2022-07-30T09:23:39.766Z,2.10
2022-07-30T09:26:06.241Z,1.90
2022-07-30T09:28:34.131Z,1.77
2022-07-30T09:31:00.857Z,1.03
2022-07-30T09:33:36.315Z,2.40
2022-07-30T09:36:05.748Z,1.47
2022-07-30T09:39:04.616Z,1.90
2022-07-30T09:41:39.889Z,2.60
2022-07-30T09:44:07.062Z,2.10
2022-07-30T09:46:48.071Z,0.80
2022-07-30T09:49:20.256Z,2.07
2022-07-30T09:51:56.492Z,0.90
2022-07-30T09:54:24.446Z,1.80
2022-07-30T09:57:04.717Z,1.07
2022-07-30T09:59:35.091Z,1.00
2022-07-30T10:02:03.835Z,0.80
2022-07-30T10:04:32.816Z,1.30
2022-07-30T10:07:01.394Z,1.00
2022-07-30T10:09:32.593Z,1.40
2022-07-30T10:12:05.861Z,1.10
2022-07-30T10:14:42.607Z,0.93
2022-07-30T10:17:10.499Z,0.67
2022-07-30T10:19:41.928Z,2.40
2022-07-30T10:22:10.326Z,0.80
2022-07-30T10:24:38.421Z,1.20
2022-07-30T10:27:06.072Z,2.10
2022-07-30T10:29:33.965Z,1.23
2022-07-30T10:32:00.817Z,0.90
2022-07-30T10:34:31.351Z,0.80
2022-07-30T10:37:04.794Z,0.80
2022-07-30T10:39:47.597Z,0.93
2022-07-30T10:42:53.812Z,1.20
2022-07-30T10:45:26.157Z,1.00
2022-07-30T10:47:55.056Z,0.70
2022-07-30T10:50:26.700Z,0.60
2022-07-30T10:52:58.980Z,0.60
2022-07-30T10:55:37.203Z,0.90
2022-07-30T10:58:08.575Z,1.10
2022-07-30T11:00:55.635Z,0.60
2022-07-30T11:03:40.165Z,0.50
2022-07-30T11:06:16.926Z,0.83
2022-07-30T11:08:51.165Z,1.57
2022-07-30T11:11:20.591Z,0.80
2022-07-30T11:13:57.371Z,0.70
2022-07-30T11:16:46.040Z,1.07
2022-07-30T11:19:53.146Z,2.23
2022-07-30T11:22:29.718Z,0.90
2022-07-30T11:24:56.767Z,0.50
2022-07-30T11:27:52.549Z,0.80
2022-07-30T11:30:20.254Z,0.83
2022-07-30T11:32:50.657Z,1.20
2022-07-30T11:35:23.062Z,0.50
2022-07-30T11:38:01.950Z,1.20
2022-07-30T11:40:41.938Z,0.80
2022-07-30T11:43:19.399Z,1.00
2022-07-30T11:46:04.636Z,1.00
2022-07-30T11:48:31.881Z,1.20
2022-07-30T11:51:02.143Z,0.70
2022-07-30T11:53:30.693Z,0.67
2022-07-30T11:55:59.939Z,0.80
2022-07-30T11:58:35.806Z,0.60
2022-07-30T12:01:11.844Z,0.80
2022-07-30T12:03:42.555Z,1.23
2022-07-30T12:06:21.211Z,0.80
2022-07-30T12:08:52.848Z,0.90
2022-07-30T12:11:21.591Z,0.77
2022-07-30T12:13:59.735Z,0.73
2022-07-30T12:16:27.485Z,1.30
2022-07-30T12:18:54.270Z,0.50
2022-07-30T12:21:21.255Z,1.00
2022-07-30T12:23:59.729Z,0.63
2022-07-30T12:26:29.241Z,0.70
2022-07-30T12:28:57.412Z,0.87
2022-07-30T12:31:24.040Z,0.90
2022-07-30T12:33:50.571Z,0.97
2022-07-30T12:36:25.979Z,0.90
2022-07-30T12:38:54.454Z,0.80
2022-07-30T12:41:22.433Z,1.03
2022-07-30T12:43:52.512Z,1.20
2022-07-30T12:46:23.360Z,1.07
2022-07-30T12:48:54.658Z,0.80
2022-07-30T12:51:26.724Z,0.80
2022-07-30T12:53:54.021Z,1.00
2022-07-30T12:56:24.640Z,0.70
2022-07-30T12:58:52.095Z,0.83
2022-07-30T13:01:18.789Z,0.80
2022-07-30T13:03:46.133Z,1.20
2022-07-30T13:06:12.535Z,1.00
2022-07-30T13:08:58.770Z,0.90
2022-07-30T13:11:48.706Z,1.00
2022-07-30T13:14:17.123Z,0.60
2022-07-30T13:16:43.725Z,0.60
2022-07-30T13:19:14.301Z,0.87
2022-07-30T13:21:50.005Z,1.47
2022-07-30T13:24:18.125Z,0.83
2022-07-30T13:26:45.119Z,0.80
2022-07-30T13:29:13.406Z,0.87
2022-07-30T13:31:43.178Z,1.20
2022-07-30T13:34:11.311Z,0.90
2022-07-30T13:36:37.787Z,0.97
2022-07-30T13:39:04.342Z,0.70
2022-07-30T13:41:30.993Z,0.77
2022-07-30T13:43:57.459Z,1.23
2022-07-30T13:46:23.911Z,1.43
2022-07-30T13:48:50.458Z,1.57
2022-07-30T13:51:16.955Z,1.17
2022-07-30T13:53:43.360Z,2.40
2022-07-30T13:56:12.684Z,1.10
2022-07-30T13:58:39.605Z,1.53
2022-07-30T14:01:06.983Z,1.03
2022-07-30T14:03:34.369Z,1.33
2022-07-30T14:06:10.390Z,1.10
2022-07-30T14:08:38.678Z,0.70
2022-07-30T14:11:05.139Z,0.80
2022-07-30T14:13:31.612Z,1.27
2022-07-30T14:15:58.391Z,1.47
2022-07-30T14:18:24.789Z,0.50
2022-07-30T14:20:53.638Z,0.80
2022-07-30T14:23:20.586Z,1.43
2022-07-30T14:25:47.201Z,0.83
2022-07-30T14:28:13.762Z,1.00
2022-07-30T14:30:40.259Z,0.60
2022-07-30T14:33:06.688Z,0.80
2022-07-30T14:35:33.295Z,1.37
2022-07-30T14:37:59.754Z,0.90
2022-07-30T14:40:26.223Z,1.00
2022-07-30T14:42:52.620Z,0.90
2022-07-30T14:45:22.820Z,0.73
2022-07-30T14:47:49.279Z,1.00
2022-07-30T14:50:15.719Z,0.80
2022-07-30T14:52:42.304Z,0.63
2022-07-30T14:55:09.626Z,0.97
2022-07-30T14:57:36.338Z,0.80
2022-07-30T15:00:05.208Z,0.70
2022-07-30T15:02:31.644Z,0.67
2022-07-30T15:04:58.066Z,1.03
2022-07-30T15:07:24.559Z,1.10
2022-07-30T15:09:51.149Z,0.90
2022-07-30T15:12:23.734Z,0.83
2022-07-30T15:14:53.724Z,1.00
2022-07-30T15:17:20.126Z,0.80
2022-07-30T15:19:50.254Z,0.77
2022-07-30T15:22:17.980Z,1.10
2022-07-30T15:24:44.386Z,0.83
2022-07-30T15:27:10.818Z,0.90
2022-07-30T15:29:37.437Z,0.70
2022-07-30T15:32:04.158Z,0.60
2022-07-30T15:34:34.286Z,0.77
2022-07-30T15:37:02.489Z,0.67
2022-07-30T15:39:29.502Z,0.57
2022-07-30T15:41:57.050Z,0.57
2022-07-30T15:44:24.229Z,1.40
2022-07-30T15:46:51.085Z,1.10
2022-07-30T15:49:17.792Z,0.70
2022-07-30T15:51:48.817Z,4.27
2022-07-30T15:54:16.536Z,1.47
2022-07-30T15:56:49.646Z,0.80
2022-07-30T15:59:16.270Z,1.33
2022-07-30T16:01:43.926Z,1.30
2022-07-30T16:04:19.626Z,0.93
2022-07-30T16:06:47.842Z,1.10
2022-07-30T16:09:15.330Z,0.90
2022-07-30T16:11:42.906Z,0.93
2022-07-30T16:14:09.414Z,0.80
2022-07-30T16:16:36.019Z,1.20
2022-07-30T16:19:02.592Z,0.90
2022-07-30T16:21:28.989Z,1.13
2022-07-30T16:23:56.545Z,1.37
2022-07-30T16:26:22.969Z,1.33
2022-07-30T16:28:49.464Z,0.70
2022-07-30T16:31:16.169Z,0.83
2022-07-30T16:33:42.730Z,1.43
2022-07-30T16:36:09.505Z,1.40
2022-07-30T16:38:36.065Z,0.80
2022-07-30T16:41:02.631Z,1.07
2022-07-30T16:43:31.749Z,0.90
2022-07-30T16:45:59.413Z,1.27
2022-07-30T16:48:26.237Z,0.90
2022-07-30T16:50:52.690Z,0.80
2022-07-30T16:53:19.239Z,0.93
2022-07-30T16:55:47.824Z,0.60
2022-07-30T16:58:14.519Z,0.77
2022-07-30T17:00:41.505Z,0.70
2022-07-30T17:03:08.537Z,0.70
2022-07-30T17:05:35.389Z,0.60
2022-07-30T17:08:04.483Z,0.60
2022-07-30T17:10:31.031Z,0.53
2022-07-30T17:12:58.073Z,0.90
2022-07-30T17:15:32.969Z,0.90
2022-07-30T17:18:00.379Z,0.60
2022-07-30T17:20:27.721Z,1.10
2022-07-30T17:22:57.460Z,0.70
2022-07-30T17:25:27.811Z,0.60
2022-07-30T17:27:55.798Z,0.70
2022-07-30T17:30:23.287Z,0.90
2022-07-30T17:32:50.474Z,0.77
2022-07-30T17:35:16.987Z,0.50
2022-07-30T17:37:43.423Z,0.90
2022-07-30T17:40:27.716Z,0.90
2022-07-30T17:43:03.405Z,0.97
2022-07-30T17:45:31.610Z,0.90
2022-07-30T17:47:58.130Z,0.63
2022-07-30T17:50:24.690Z,1.10
2022-07-30T17:52:51.154Z,0.60
2022-07-30T17:55:17.652Z,0.73
2022-07-30T17:57:44.121Z,1.03
2022-07-30T18:00:11.092Z,0.93
2022-07-30T18:02:37.579Z,0.70
2022-07-30T18:05:04.314Z,0.80
2022-07-30T18:07:30.916Z,0.63
2022-07-30T18:09:57.360Z,0.60
2022-07-30T18:12:23.759Z,1.07
2022-07-30T18:14:50.451Z,0.90
2022-07-30T18:17:16.946Z,0.67
2022-07-30T18:19:43.388Z,1.57
2022-07-30T18:22:09.987Z,1.00
2022-07-30T18:24:40.139Z,0.67
2022-07-30T18:27:08.184Z,0.67
2022-07-30T18:29:34.752Z,1.03
2022-07-30T18:32:01.653Z,0.57
2022-07-30T18:34:28.414Z,0.83
2022-07-30T18:36:54.992Z,0.90
2022-07-30T18:39:21.572Z,0.80
2022-07-30T18:41:47.988Z,0.83
2022-07-30T18:44:14.486Z,1.00
2022-07-30T18:46:40.968Z,1.07
2022-07-30T18:49:26.910Z,1.30
2022-07-30T18:51:53.946Z,0.60
2022-07-30T18:54:22.927Z,0.80
2022-07-30T18:56:49.387Z,0.73
2022-07-30T18:59:15.816Z,0.63
2022-07-30T19:01:43.879Z,1.07
2022-07-30T19:04:10.402Z,1.07
2022-07-30T19:06:37.956Z,0.50
2022-07-30T19:09:05.553Z,0.97
2022-07-30T19:11:32.536Z,0.77
2022-07-30T19:13:58.965Z,0.87
2022-07-30T19:16:25.542Z,1.20
2022-07-30T19:18:52.195Z,0.90
2022-07-30T19:21:18.675Z,0.70
2022-07-30T19:23:45.108Z,2.50
2022-07-30T19:26:14.114Z,1.33
2022-07-30T19:28:40.596Z,0.90
2022-07-30T19:31:07.199Z,0.90
2022-07-30T19:33:33.589Z,0.73
2022-07-30T19:36:00.246Z,1.17
2022-07-30T19:38:26.783Z,1.10
2022-07-30T19:40:53.172Z,0.80
2022-07-30T19:43:24.079Z,1.30
2022-07-30T19:45:51.180Z,0.90
2022-07-30T19:48:28.992Z,0.87
2022-07-30T19:50:58.803Z,1.57
2022-07-30T19:53:25.508Z,0.93
2022-07-30T19:55:52.039Z,0.97
2022-07-30T19:58:18.793Z,0.87
2022-07-30T20:00:48.509Z,0.70
2022-07-30T20:03:18.945Z,1.10
2022-07-30T20:05:57.401Z,1.00
2022-07-30T20:08:26.216Z,0.77
2022-07-30T20:10:52.766Z,1.03
2022-07-30T20:13:19.547Z,0.80
2022-07-30T20:15:46.353Z,0.93
2022-07-30T20:18:13.109Z,0.80
2022-07-30T20:20:41.213Z,0.67
2022-07-30T20:23:08.220Z,0.97
2022-07-30T20:25:37.039Z,0.80
2022-07-30T20:28:04.691Z,0.93
2022-07-30T20:30:31.152Z,0.63
2022-07-30T20:32:57.642Z,0.77
2022-07-30T20:35:26.412Z,1.57
2022-07-30T20:37:54.848Z,0.83
2022-07-30T20:40:24.556Z,0.77
2022-07-30T20:42:53.455Z,1.20
2022-07-30T20:45:21.383Z,1.10
2022-07-30T20:47:55.310Z,1.00
2022-07-30T20:53:09.174Z,1.30
2022-07-30T20:55:35.722Z,0.80
2022-07-30T20:58:13.799Z,0.97
2022-07-30T21:00:49.309Z,0.90
2022-07-30T21:03:16.807Z,0.93
2022-07-30T21:05:44.058Z,0.97
2022-07-30T21:08:12.300Z,0.80
2022-07-30T21:10:40.883Z,0.97
2022-07-30T21:13:11.048Z,1.30
2022-07-30T21:15:45.401Z,1.13
2022-07-30T21:18:24.879Z,0.70
2022-07-30T21:20:52.993Z,0.83
2022-07-30T21:23:22.233Z,1.03
2022-07-30T21:26:00.506Z,0.87
2022-07-30T21:28:29.150Z,0.97
2022-07-30T21:30:57.399Z,1.10
2022-07-30T21:33:24.351Z,0.70
2022-07-30T21:35:57.509Z,1.10
2022-07-30T21:38:26.294Z,0.93
2022-07-30T21:40:52.771Z,1.13
2022-07-30T21:43:22.991Z,1.10
2022-07-30T21:45:56.279Z,1.33
2022-07-30T21:48:24.383Z,0.93
2022-07-30T21:50:50.912Z,0.67
2022-07-30T21:53:17.325Z,0.90
2022-07-30T21:55:56.764Z,1.10
2022-07-30T22:01:16.599Z,1.17
2022-07-30T22:04:04.068Z,1.20
2022-07-30T22:06:30.566Z,0.90
2022-07-30T22:08:57.426Z,1.00
2022-07-30T22:11:23.864Z,1.10
2022-07-30T22:13:51.450Z,0.90
2022-07-30T22:16:21.727Z,1.17
2022-07-30T22:18:48.570Z,0.83
2022-07-30T22:21:15.383Z,1.87
2022-07-30T22:23:54.822Z,0.80
2022-07-30T22:26:26.736Z,1.90
2022-07-30T22:28:54.474Z,0.90
2022-07-30T22:31:21.341Z,1.13
2022-07-30T22:33:49.829Z,1.00
2022-07-30T22:36:17.743Z,0.83
2022-07-30T22:38:58.644Z,1.17
2022-07-30T22:41:26.276Z,1.20
2022-07-30T22:43:55.748Z,1.07
2022-07-30T22:46:31.009Z,2.10
2022-07-30T22:48:59.259Z,1.20
2022-07-30T22:51:58.556Z,1.47
2022-07-30T22:54:13.459Z,0.70
2022-07-30T22:56:41.366Z,1.30
2022-07-30T22:59:08.120Z,1.87
2022-07-30T23:01:34.664Z,1.10
2022-07-30T23:04:01.706Z,0.77
2022-07-30T23:06:28.474Z,1.50
2022-07-30T23:08:56.828Z,1.00
2022-07-30T23:11:23.360Z,1.13
2022-07-30T23:12:18.626Z,1.60
2022-07-30T23:12:33.052Z,1.23
2022-07-30T23:13:53.643Z,0.90
2022-07-30T23:16:20.290Z,0.83
2022-07-30T23:18:46.778Z,0.80
2022-07-30T23:21:14.941Z,1.13
2022-07-30T23:23:41.437Z,1.10
2022-07-30T23:26:08.663Z,0.97
2022-07-30T23:28:36.728Z,0.83
2022-07-30T23:31:04.372Z,1.43
2022-07-30T23:33:31.733Z,0.80
2022-07-30T23:36:00.297Z,1.13
2022-07-30T23:38:27.332Z,1.57
2022-07-30T23:40:54.190Z,1.07
2022-07-30T23:43:20.627Z,1.43
2022-07-30T23:45:47.041Z,1.03
2022-07-30T23:48:13.449Z,1.03
2022-07-30T23:50:39.922Z,1.23
2022-07-30T23:53:06.383Z,0.60
2022-07-30T23:55:32.848Z,0.97
2022-07-30T23:58:00.288Z,1.20
